createdAt,value
2023-04-02T00:01:54.355Z,101158.19
2023-04-02T00:04:24.154Z,101158.19
2023-04-02T00:06:57.032Z,101164.94
2023-04-02T00:09:32.095Z,101168.63
2023-04-02T00:12:15.890Z,101170.53
2023-04-02T00:14:51.458Z,101171.50
2023-04-02T00:17:22.317Z,101183.13
2023-04-02T00:19:56.361Z,101180.44
2023-04-02T00:22:29.586Z,101184.88
2023-04-02T00:25:04.953Z,101182.78
2023-04-02T00:27:33.786Z,101190.59
2023-04-02T00:30:06.484Z,101198.91
2023-04-02T00:32:37.118Z,101210.59
2023-04-02T00:35:11.461Z,101205.03
2023-04-02T00:37:42.312Z,101208.81
2023-04-02T00:40:21.054Z,101213.13
2023-04-02T00:42:51.021Z,101215.84
2023-04-02T00:45:25.897Z,101211.03
2023-04-02T00:47:54.691Z,101225.41
2023-04-02T00:50:29.342Z,101227.13
2023-04-02T00:53:00.114Z,101228.78
2023-04-02T00:55:37.373Z,101241.78
2023-04-02T00:58:16.485Z,101233.81
2023-04-02T01:00:51.009Z,101227.94
2023-04-02T01:03:34.886Z,101253.94
2023-04-02T01:06:11.295Z,101259.72
2023-04-02T01:08:52.683Z,101252.09
2023-04-02T01:11:47.437Z,101272.63
2023-04-02T01:14:26.214Z,101230.13
2023-04-02T01:17:01.771Z,101273.50
2023-04-02T01:19:58.528Z,101276.09
2023-04-02T01:22:35.216Z,101285.56
2023-04-02T01:25:06.600Z,101284.88
2023-04-02T01:27:44.100Z,101278.97
2023-04-02T01:30:15.974Z,101293.53
2023-04-02T01:32:45.435Z,101208.13
2023-04-02T01:35:17.952Z,101294.59
2023-04-02T01:37:56.507Z,101304.31
2023-04-02T01:40:37.496Z,101306.00
2023-04-02T01:43:17.201Z,101315.41
2023-04-02T01:45:47.525Z,101311.81
2023-04-02T01:48:20.009Z,101328.06
2023-04-02T01:50:51.402Z,101311.38
2023-04-02T01:53:23.289Z,101329.03
2023-04-02T01:55:54.699Z,101333.56
2023-04-02T01:58:25.993Z,101337.13
2023-04-02T02:01:02.146Z,101334.34
2023-04-02T02:03:32.242Z,101343.28
2023-04-02T02:06:03.309Z,101344.19
2023-04-02T02:08:38.034Z,101361.47
2023-04-02T02:11:09.571Z,101354.75
2023-04-02T02:13:42.112Z,101363.84
2023-04-02T02:16:17.912Z,101379.56
2023-04-02T02:18:49.555Z,101368.50
2023-04-02T02:21:28.996Z,101380.66
2023-04-02T02:23:58.687Z,101248.59
2023-04-02T02:26:30.211Z,101398.59
2023-04-02T02:29:01.375Z,101398.19
2023-04-02T02:31:35.095Z,101399.72
2023-04-02T02:34:08.517Z,101402.25
2023-04-02T02:36:49.089Z,101404.81
2023-04-02T02:39:23.641Z,101415.09
2023-04-02T02:41:57.198Z,101418.50
2023-04-02T02:44:29.957Z,101416.75
2023-04-02T02:47:03.440Z,101417.88
2023-04-02T02:49:35.425Z,101422.84
2023-04-02T02:52:16.242Z,101423.09
2023-04-02T02:54:58.619Z,101430.78
2023-04-02T02:57:34.468Z,101439.63
2023-04-02T03:00:06.864Z,101446.31
2023-04-02T03:02:41.153Z,101456.63
2023-04-02T03:05:19.275Z,101458.44
2023-04-02T03:07:53.465Z,101460.09
2023-04-02T03:10:28.485Z,101467.16
2023-04-02T03:13:03.454Z,101450.84
2023-04-02T03:15:39.309Z,101479.25
2023-04-02T03:18:15.192Z,101487.09
2023-04-02T03:20:49.888Z,101496.66
2023-04-02T03:23:23.568Z,101500.00
2023-04-02T03:26:01.052Z,101474.47
2023-04-02T03:28:33.332Z,101384.19
2023-04-02T03:31:07.157Z,101519.00
2023-04-02T03:33:43.483Z,101523.47
2023-04-02T03:36:20.735Z,101533.72
2023-04-02T03:38:53.597Z,101525.94
2023-04-02T03:41:27.702Z,101499.56
2023-04-02T03:44:00.407Z,101510.75
2023-04-02T03:46:34.939Z,101541.47
2023-04-02T03:49:08.674Z,101540.63
2023-04-02T03:51:43.968Z,101552.56
2023-04-02T03:54:16.586Z,101552.66
2023-04-02T03:56:47.733Z,101553.63
2023-04-02T03:59:32.898Z,101561.44
2023-04-02T04:02:11.821Z,101567.50
2023-04-02T04:04:45.857Z,101585.47
2023-04-02T04:07:23.542Z,101584.84
2023-04-02T04:09:55.757Z,101565.22
2023-04-02T04:12:31.260Z,101470.59
2023-04-02T04:15:10.071Z,101612.47
2023-04-02T04:17:51.421Z,101608.31
2023-04-02T04:20:25.553Z,101627.13
2023-04-02T04:22:56.231Z,101626.19
2023-04-02T04:25:30.790Z,101621.16
2023-04-02T04:28:13.774Z,101635.59
2023-04-02T04:30:52.721Z,101639.28
2023-04-02T04:33:29.146Z,101642.72
2023-04-02T04:36:05.060Z,101646.25
2023-04-02T04:38:40.843Z,101657.28
2023-04-02T04:41:17.962Z,101581.41
2023-04-02T04:43:53.824Z,101665.91
2023-04-02T04:46:30.217Z,101675.44
2023-04-02T04:49:09.834Z,101680.69
2023-04-02T04:51:46.553Z,101684.09
2023-04-02T04:54:21.846Z,101697.94
2023-04-02T04:57:03.371Z,101673.88
2023-04-02T04:59:46.575Z,101698.81
2023-04-02T05:05:21.776Z,101699.69
2023-04-02T05:08:03.247Z,101700.56
2023-04-02T05:10:39.972Z,101673.19
2023-04-02T05:13:27.707Z,101719.50
2023-04-02T05:16:11.910Z,101722.13
2023-04-02T05:18:50.853Z,101725.59
2023-04-02T05:21:28.386Z,101723.94
2023-04-02T05:24:20.845Z,101722.38
2023-04-02T05:26:55.757Z,101746.28
2023-04-02T05:29:50.647Z,101755.75
2023-04-02T05:32:28.022Z,101762.66
2023-04-02T05:35:02.160Z,101772.00
2023-04-02T05:37:38.326Z,101756.66
2023-04-02T05:40:17.418Z,101776.44
2023-04-02T05:42:53.906Z,101797.88
2023-04-02T05:45:47.102Z,101804.84
2023-04-02T05:48:21.632Z,101772.25
2023-04-02T05:50:55.016Z,101810.84
2023-04-02T05:53:40.429Z,101777.50
2023-04-02T05:56:19.669Z,101827.16
2023-04-02T05:58:59.390Z,101827.19
2023-04-02T06:01:44.080Z,101843.44
2023-04-02T06:04:25.008Z,101849.53
2023-04-02T06:07:13.460Z,101856.38
2023-04-02T06:09:52.501Z,101865.78
2023-04-02T06:12:43.963Z,101856.38
2023-04-02T06:15:20.368Z,101880.41
2023-04-02T06:18:01.978Z,101700.47
2023-04-02T06:20:36.121Z,101880.41
2023-04-02T06:23:14.343Z,101890.72
2023-04-02T06:25:54.872Z,101896.72
2023-04-02T06:28:37.807Z,101905.28
2023-04-02T06:31:20.654Z,101912.16
2023-04-02T06:33:56.865Z,101918.13
2023-04-02T06:36:39.210Z,101928.47
2023-04-02T06:39:22.916Z,101933.59
2023-04-02T06:42:02.990Z,101934.47
2023-04-02T06:45:08.825Z,101939.63
2023-04-02T06:48:00.777Z,101949.03
2023-04-02T06:50:58.555Z,101953.34
2023-04-02T06:53:30.772Z,101947.31
2023-04-02T06:56:08.557Z,101966.19
2023-04-02T06:58:43.265Z,101971.28
2023-04-02T07:01:18.498Z,101983.31
2023-04-02T07:03:51.766Z,101986.72
2023-04-02T07:06:32.471Z,101972.97
2023-04-02T07:09:08.212Z,101991.88
2023-04-02T07:11:42.899Z,102007.34
2023-04-02T07:14:14.063Z,102005.59
2023-04-02T07:16:51.791Z,102012.50
2023-04-02T07:19:24.443Z,102014.06
2023-04-02T07:22:04.778Z,102022.75
2023-04-02T07:24:42.634Z,102032.19
2023-04-02T07:27:13.478Z,102057.09
2023-04-02T07:29:43.938Z,102039.91
2023-04-02T07:32:23.363Z,102042.50
2023-04-02T07:35:09.960Z,102052.78
2023-04-02T07:37:51.635Z,102056.25
2023-04-02T07:40:30.973Z,102060.53
2023-04-02T07:43:00.326Z,102051.88
2023-04-02T07:45:34.362Z,102071.63
2023-04-02T07:48:08.275Z,102068.19
2023-04-02T07:50:37.289Z,102060.50
2023-04-02T07:53:08.883Z,102070.81
2023-04-02T07:55:37.776Z,102081.03
2023-04-02T07:58:06.531Z,102062.09
2023-04-02T08:00:35.200Z,102086.84
2023-04-02T08:03:05.766Z,102099.72
2023-04-02T08:05:36.569Z,102091.16
2023-04-02T08:08:06.074Z,102102.34
2023-04-02T08:10:34.819Z,102101.56
2023-04-02T08:13:03.645Z,102102.44
2023-04-02T08:15:32.492Z,102102.47
2023-04-02T08:18:01.565Z,102107.66
2023-04-02T08:20:30.623Z,102120.53
2023-04-02T08:23:01.102Z,102127.41
2023-04-02T08:25:30.683Z,102131.66
2023-04-02T08:28:02.914Z,102131.63
2023-04-02T08:30:32.390Z,102129.03
2023-04-02T08:33:01.209Z,102144.44
2023-04-02T08:35:30.366Z,102147.00
2023-04-02T08:38:00.673Z,102151.31
2023-04-02T08:40:36.216Z,102120.34
2023-04-02T08:43:23.780Z,102157.31
2023-04-02T08:46:05.635Z,102168.44
2023-04-02T08:48:40.794Z,102177.91
2023-04-02T08:51:22.646Z,102177.13
2023-04-02T08:53:56.670Z,102186.66
2023-04-02T08:56:31.758Z,102188.53
2023-04-02T08:59:04.801Z,102196.28
2023-04-02T09:01:42.710Z,102186.81
2023-04-02T09:04:16.552Z,102169.53
2023-04-02T09:06:49.917Z,102205.63
2023-04-02T09:09:25.011Z,102194.25
2023-04-02T09:11:55.491Z,102191.59
2023-04-02T09:14:31.926Z,102168.38
2023-04-02T09:17:03.769Z,102189.09
2023-04-02T09:19:37.375Z,102201.16
2023-04-02T09:22:10.437Z,102197.56
2023-04-02T09:24:42.727Z,102198.16
2023-04-02T09:27:19.634Z,102210.81
2023-04-02T09:29:50.930Z,102212.28
2023-04-02T09:32:41.344Z,102224.91
2023-04-02T09:35:25.581Z,102229.88
2023-04-02T09:38:31.656Z,102230.47
2023-04-02T09:41:07.089Z,102227.75
2023-04-02T09:43:37.352Z,102238.91
2023-04-02T09:46:15.602Z,102238.22
2023-04-02T09:48:47.266Z,102230.72
2023-04-02T09:51:21.456Z,102232.06
2023-04-02T09:53:51.845Z,102232.09
2023-04-02T09:56:24.333Z,102221.81
2023-04-02T09:59:04.768Z,102237.41
2023-04-02T10:01:36.177Z,102233.00
2023-04-02T10:04:28.524Z,102237.81
2023-04-02T10:06:59.223Z,102242.47
2023-04-02T10:09:30.992Z,102224.84
2023-04-02T10:12:03.290Z,102243.41
2023-04-02T10:14:37.399Z,102252.88
2023-04-02T10:17:16.595Z,102251.75
2023-04-02T10:19:50.037Z,102245.97
2023-04-02T10:22:20.964Z,102246.66
2023-04-02T10:24:50.051Z,102257.84
2023-04-02T10:27:30.514Z,102242.75
2023-04-02T10:30:21.897Z,102276.53
2023-04-02T10:32:57.058Z,102282.84
2023-04-02T10:35:39.441Z,102275.97
2023-04-02T10:38:25.716Z,102284.38
2023-04-02T10:41:00.640Z,102285.25
2023-04-02T10:44:20.469Z,102279.19
2023-04-02T10:47:04.161Z,102291.94
2023-04-02T10:49:42.496Z,102294.94
2023-04-02T10:52:19.314Z,102305.75
2023-04-02T10:54:51.442Z,102288.72
2023-04-02T10:57:30.163Z,102301.25
2023-04-02T11:00:08.167Z,102297.75
2023-04-02T11:02:45.261Z,102304.88
2023-04-02T11:05:26.538Z,102307.81
2023-04-02T11:08:05.344Z,102314.41
2023-04-02T11:10:38.164Z,102314.38
2023-04-02T11:13:16.093Z,102322.06
2023-04-02T11:15:45.361Z,102314.28
2023-04-02T11:18:29.803Z,102321.19
2023-04-02T11:21:17.285Z,102326.50
2023-04-02T11:23:59.695Z,102332.22
2023-04-02T11:26:41.325Z,102326.88
2023-04-02T11:29:32.115Z,102328.44
2023-04-02T11:32:28.771Z,102337.22
2023-04-02T11:35:26.650Z,102336.69
2023-04-02T11:38:04.422Z,102331.72
2023-04-02T11:40:48.852Z,102334.94
2023-04-02T11:43:50.838Z,102338.50
2023-04-02T11:46:45.590Z,102341.53
2023-04-02T11:49:57.793Z,102334.25
2023-04-02T11:52:31.653Z,102338.91
2023-04-02T11:55:22.374Z,102350.19
2023-04-02T11:58:23.729Z,102335.63
2023-04-02T12:01:18.533Z,102338.00
2023-04-02T12:04:05.770Z,102352.34
2023-04-02T12:06:49.406Z,102350.38
2023-04-02T12:09:23.904Z,102354.06
2023-04-02T12:11:54.915Z,102324.47
2023-04-02T12:14:46.975Z,102355.22
2023-04-02T12:17:31.611Z,102361.50
2023-04-02T12:20:04.301Z,102355.81
2023-04-02T12:22:36.921Z,102347.50
2023-04-02T12:25:26.684Z,102348.78
2023-04-02T12:28:06.460Z,102348.94
2023-04-02T12:30:35.542Z,102358.63
2023-04-02T12:33:18.847Z,102369.13
2023-04-02T12:35:48.551Z,102369.03
2023-04-02T12:38:23.151Z,102371.75
2023-04-02T12:40:58.016Z,102355.28
2023-04-02T12:43:29.286Z,102373.69
2023-04-02T12:46:00.434Z,102383.28
2023-04-02T12:48:31.168Z,102375.09
2023-04-02T12:51:01.404Z,102364.19
2023-04-02T12:53:35.959Z,102372.72
2023-04-02T12:56:08.303Z,102379.13
2023-04-02T12:58:39.806Z,102377.75
2023-04-02T13:01:18.477Z,102377.56
2023-04-02T13:04:04.861Z,102382.19
2023-04-02T13:06:35.081Z,102382.38
2023-04-02T13:09:07.112Z,102381.63
2023-04-02T13:11:39.293Z,102384.53
2023-04-02T13:14:10.676Z,102389.31
2023-04-02T13:16:40.799Z,102390.75
2023-04-02T13:19:31.815Z,102411.94
2023-04-02T13:22:04.149Z,102393.28
2023-04-02T13:24:34.476Z,102389.53
2023-04-02T13:27:05.602Z,102393.28
2023-04-02T13:29:35.590Z,102400.81
2023-04-02T13:32:06.830Z,102404.31
2023-04-02T13:34:36.026Z,102409.84
2023-04-02T13:37:05.801Z,102419.59
2023-04-02T13:39:35.018Z,102420.81
2023-04-02T13:42:06.745Z,102423.50
2023-04-02T13:44:37.551Z,102422.59
2023-04-02T13:47:06.469Z,102423.16
2023-04-02T13:49:37.390Z,102411.19
2023-04-02T13:52:11.767Z,102416.44
2023-04-02T13:54:48.855Z,102408.69
2023-04-02T13:57:19.234Z,102405.84
2023-04-02T13:59:48.030Z,102386.03
2023-04-02T14:02:20.479Z,102413.41
2023-04-02T14:04:52.697Z,102427.72
2023-04-02T14:07:45.431Z,102431.84
2023-04-02T14:10:27.275Z,102431.03
2023-04-02T14:13:19.748Z,102443.53
2023-04-02T14:16:06.938Z,102423.88
2023-04-02T14:18:50.155Z,102442.38
2023-04-02T14:21:31.314Z,102429.66
2023-04-02T14:24:18.365Z,102438.78
2023-04-02T14:27:04.657Z,102437.00
2023-04-02T14:29:50.093Z,102445.72
2023-04-02T14:32:34.365Z,102450.16
2023-04-02T14:35:12.562Z,102447.13
2023-04-02T14:37:51.512Z,102444.00
2023-04-02T14:40:27.354Z,102453.59
2023-04-02T14:43:03.129Z,102448.16
2023-04-02T14:45:49.032Z,102453.66
2023-04-02T14:48:31.695Z,102455.34
2023-04-02T14:51:06.363Z,102454.56
2023-04-02T14:53:51.613Z,102456.00
2023-04-02T14:56:23.394Z,102463.22
2023-04-02T14:59:03.431Z,102471.13
2023-04-02T15:01:39.213Z,102476.94
2023-04-02T15:04:13.572Z,102473.34
2023-04-02T15:06:50.356Z,102480.38
2023-04-02T15:09:25.208Z,102481.34
2023-04-02T15:12:00.957Z,102476.25
2023-04-02T15:14:36.297Z,102484.13
2023-04-02T15:17:07.789Z,102475.56
2023-04-02T15:19:36.645Z,102474.72
2023-04-02T15:22:26.734Z,102479.34
2023-04-02T15:25:10.921Z,102475.63
2023-04-02T15:27:57.180Z,102479.94
2023-04-02T15:30:30.240Z,102468.50
2023-04-02T15:33:31.213Z,102471.91
2023-04-02T15:36:18.164Z,102488.78
2023-04-02T15:38:51.464Z,102495.53
2023-04-02T15:41:26.278Z,102494.50
2023-04-02T15:44:04.034Z,102491.00
2023-04-02T15:46:43.053Z,102489.38
2023-04-02T15:49:49.276Z,102487.41
2023-04-02T15:52:26.714Z,102497.44
2023-04-02T15:55:03.813Z,102500.72
2023-04-02T15:57:54.656Z,102499.84
2023-04-02T16:00:28.062Z,102503.69
2023-04-02T16:03:13.477Z,102502.91
2023-04-02T16:05:52.938Z,102503.50
2023-04-02T16:08:50.643Z,102505.25
2023-04-02T16:11:20.953Z,102507.13
2023-04-02T16:13:49.718Z,102501.81
2023-04-02T16:16:23.821Z,102497.66
2023-04-02T16:19:01.668Z,102509.72
2023-04-02T16:21:39.624Z,102505.31
2023-04-02T16:24:12.161Z,102521.53
2023-04-02T16:26:53.297Z,102512.41
2023-04-02T16:29:53.981Z,102526.44
2023-04-02T16:32:45.836Z,102418.09
2023-04-02T16:38:10.076Z,102535.44
2023-04-02T16:40:57.124Z,102541.13
2023-04-02T16:43:37.297Z,102544.38
2023-04-02T16:46:12.789Z,102545.50
2023-04-02T16:48:48.755Z,102549.44
2023-04-02T16:51:26.226Z,102544.16
2023-04-02T16:54:06.753Z,102554.91
2023-04-02T16:56:49.683Z,102564.50
2023-04-02T16:59:27.182Z,102574.84
2023-04-02T17:02:02.170Z,102582.22
2023-04-02T17:04:50.406Z,102584.38
2023-04-02T17:07:30.131Z,102593.72
2023-04-02T17:10:11.962Z,102594.75
2023-04-02T17:12:46.113Z,102603.25
2023-04-02T17:15:27.764Z,102600.81
2023-04-02T17:18:02.831Z,102603.31
2023-04-02T17:20:34.478Z,102604.66
2023-04-02T17:23:05.708Z,102611.47
2023-04-02T17:25:41.410Z,102614.09
2023-04-02T17:28:13.985Z,102611.06
2023-04-02T17:30:46.109Z,102602.53
2023-04-02T17:33:17.317Z,102618.75
2023-04-02T17:36:01.069Z,102616.16
2023-04-02T17:38:38.753Z,102611.84
2023-04-02T17:41:18.502Z,102633.31
2023-04-02T17:43:56.991Z,102633.53
2023-04-02T17:46:35.893Z,102614.69
2023-04-02T17:49:13.224Z,102641.38
2023-04-02T17:51:49.883Z,102638.84
2023-04-02T17:54:31.939Z,102650.00
2023-04-02T17:57:25.053Z,102643.31
2023-04-02T18:00:10.936Z,102606.50
2023-04-02T18:03:06.422Z,102664.00
2023-04-02T18:05:42.820Z,102671.88
2023-04-02T18:08:25.615Z,102678.00
2023-04-02T18:11:05.905Z,102682.34
2023-04-02T18:13:43.595Z,102679.03
2023-04-02T18:16:21.138Z,102672.28
2023-04-02T18:19:06.087Z,102674.94
2023-04-02T18:21:40.488Z,102687.97
2023-04-02T18:24:28.442Z,102695.63
2023-04-02T18:27:13.746Z,102701.75
2023-04-02T18:29:52.763Z,102708.66
2023-04-02T18:32:39.179Z,102701.88
2023-04-02T18:35:21.419Z,102713.09
2023-04-02T18:38:09.297Z,102743.41
2023-04-02T18:40:46.675Z,102715.75
2023-04-02T18:43:32.804Z,102732.22
2023-04-02T18:46:07.441Z,102741.75
2023-04-02T18:48:48.901Z,102746.94
2023-04-02T18:51:21.352Z,102746.94
2023-04-02T18:54:01.066Z,102749.53
2023-04-02T18:56:31.854Z,102755.63
2023-04-02T18:59:15.608Z,102753.88
2023-04-02T19:01:51.374Z,102755.63
2023-04-02T19:04:25.066Z,102760.84
2023-04-02T19:06:58.253Z,102760.00
2023-04-02T19:09:31.963Z,102754.78
2023-04-02T19:12:03.944Z,102771.19
2023-04-02T19:14:33.953Z,102766.00
2023-04-02T19:17:14.890Z,102767.72
2023-04-02T19:20:01.013Z,102771.19
2023-04-02T19:22:41.876Z,102777.28
2023-04-02T19:25:27.363Z,102776.47
2023-04-02T19:28:14.791Z,102774.75
2023-04-02T19:31:13.801Z,102775.63
2023-04-02T19:33:52.317Z,102779.94
2023-04-02T19:36:47.827Z,102764.41
2023-04-02T19:39:40.885Z,102771.34
2023-04-02T19:42:18.794Z,102794.59
2023-04-02T19:44:52.322Z,102803.25
2023-04-02T19:47:21.912Z,102807.53
2023-04-02T19:49:57.593Z,102812.75
2023-04-02T19:52:26.542Z,102805.81
2023-04-02T19:54:58.119Z,102815.31
2023-04-02T19:57:29.471Z,102817.88
2023-04-02T19:59:58.308Z,102809.31
2023-04-02T20:02:27.125Z,102815.34
2023-04-02T20:04:58.802Z,102825.69
2023-04-02T20:07:32.018Z,102823.97
2023-04-02T20:10:00.996Z,102792.91
2023-04-02T20:12:29.674Z,102821.38
2023-04-02T20:14:58.486Z,102826.56
2023-04-02T20:17:28.365Z,102817.06
2023-04-02T20:19:58.722Z,102826.56
2023-04-02T20:22:27.873Z,102818.78
2023-04-02T20:24:59.717Z,102833.47
2023-04-02T20:27:29.655Z,102839.53
2023-04-02T20:29:58.384Z,102846.41
2023-04-02T20:32:29.223Z,102854.19
2023-04-02T20:34:59.377Z,102851.56
2023-04-02T20:37:28.160Z,102855.88
2023-04-02T20:39:57.888Z,102861.94
2023-04-02T20:42:27.024Z,102867.13
2023-04-02T20:44:58.411Z,102873.16
2023-04-02T20:47:27.201Z,102874.00
2023-04-02T20:49:56.313Z,102874.00
2023-04-02T20:52:28.019Z,102873.97
2023-04-02T20:54:57.432Z,102874.84
2023-04-02T20:57:27.680Z,102880.03
2023-04-02T20:59:58.905Z,102882.63
2023-04-02T21:02:27.796Z,102895.53
2023-04-02T21:04:59.108Z,102899.00
2023-04-02T21:07:29.374Z,102904.16
2023-04-02T21:10:00.776Z,102901.59
2023-04-02T21:12:29.511Z,102905.84
2023-04-02T21:15:01.006Z,102915.34
2023-04-02T21:17:31.170Z,102914.44
2023-04-02T21:20:02.230Z,102912.75
2023-04-02T21:22:32.340Z,102910.09
2023-04-02T21:25:01.114Z,102905.75
2023-04-02T21:27:29.818Z,102910.13
2023-04-02T21:29:58.546Z,102907.47
2023-04-02T21:32:27.260Z,102924.75
2023-04-02T21:34:56.177Z,102918.66
2023-04-02T21:37:27.387Z,102911.66
2023-04-02T21:39:57.443Z,102917.72
2023-04-02T21:42:27.776Z,102922.03
2023-04-02T21:44:56.780Z,102915.09
2023-04-02T21:47:27.712Z,102929.72
2023-04-02T21:49:58.645Z,102931.34
2023-04-02T21:52:27.420Z,102933.06
2023-04-02T21:54:57.532Z,102933.03
2023-04-02T21:57:26.415Z,102934.78
2023-04-02T21:59:56.960Z,102905.31
2023-04-02T22:02:25.932Z,102928.78
2023-04-02T22:04:54.661Z,102944.13
2023-04-02T22:07:23.392Z,102931.31
2023-04-02T22:09:52.040Z,102926.91
2023-04-02T22:12:22.172Z,102926.91
2023-04-02T22:14:51.751Z,102926.84
2023-04-02T22:17:22.864Z,102923.38
2023-04-02T22:19:51.636Z,102928.56
2023-04-02T22:22:20.336Z,102940.66
2023-04-02T22:24:49.181Z,102934.50
2023-04-02T22:27:17.914Z,102921.50
2023-04-02T22:29:48.094Z,102920.59
2023-04-02T22:32:16.854Z,102937.81
2023-04-02T22:34:45.752Z,102944.69
2023-04-02T22:37:17.409Z,102941.00
2023-04-02T22:39:46.233Z,102923.84
2023-04-02T22:42:17.205Z,102937.66
2023-04-02T22:44:47.350Z,102938.44
2023-04-02T22:47:16.029Z,102923.78
2023-04-02T22:49:44.772Z,102941.78
2023-04-02T22:52:13.499Z,102945.28
2023-04-02T22:54:42.227Z,102953.03
2023-04-02T22:57:11.407Z,102948.72
2023-04-02T22:59:40.434Z,102947.72
2023-04-02T23:02:10.602Z,102948.50
2023-04-02T23:04:39.480Z,102942.38
2023-04-02T23:07:08.206Z,102931.00
2023-04-02T23:09:37.058Z,102940.72
2023-04-02T23:12:06.425Z,102947.53
2023-04-02T23:14:35.462Z,102942.38
2023-04-02T23:17:04.181Z,102812.56
2023-04-02T23:19:34.295Z,102942.28
2023-04-02T23:22:03.100Z,102954.28
2023-04-02T23:24:31.863Z,102951.63
2023-04-02T23:27:00.688Z,102951.56
2023-04-02T23:29:29.508Z,102948.97
2023-04-02T23:31:58.294Z,102942.78
2023-04-02T23:34:27.103Z,102952.31
2023-04-02T23:36:57.233Z,102948.63
2023-04-02T23:39:26.014Z,102957.44
2023-04-02T23:41:54.656Z,102957.28
2023-04-02T23:44:23.452Z,102964.13
2023-04-02T23:46:52.494Z,102963.97
2023-04-02T23:49:22.254Z,102958.06
2023-04-02T23:51:51.189Z,102963.13
2023-04-02T23:54:21.475Z,102951.56
2023-04-02T23:56:52.628Z,102962.13
2023-04-02T23:59:22.130Z,102970.75
